createdAt,value
2019-01-17T00:00:36.709Z,1009.96
2019-01-17T00:01:36.679Z,1009.96
2019-01-17T00:02:36.748Z,1009.94
2019-01-17T00:03:36.672Z,1009.96
2019-01-17T00:04:36.683Z,1009.92
2019-01-17T00:05:36.834Z,1009.93
2019-01-17T00:06:36.947Z,1009.93
2019-01-17T00:07:36.764Z,1009.94
2019-01-17T00:08:36.848Z,1009.9
2019-01-17T00:09:36.600Z,1009.91
2019-01-17T00:10:36.701Z,1009.91
2019-01-17T00:11:36.668Z,1009.91
2019-01-17T00:12:36.633Z,1009.93
2019-01-17T00:13:36.634Z,1009.92
2019-01-17T00:14:36.906Z,1009.96
2019-01-17T00:15:36.729Z,1009.93
2019-01-17T00:16:36.841Z,1009.98
2019-01-17T00:17:36.542Z,1009.95
2019-01-17T00:18:36.634Z,1009.97
2019-01-17T00:19:36.549Z,1010.01
2019-01-17T00:20:38.650Z,1010
2019-01-17T00:21:36.809Z,1010
2019-01-17T00:22:36.699Z,1010.04
2019-01-17T00:23:37.715Z,1010
2019-01-17T00:24:36.990Z,1009.98
2019-01-17T00:25:36.965Z,1010.01
2019-01-17T00:26:37.637Z,1010.01
2019-01-17T00:27:37.000Z,1010.05
2019-01-17T00:28:36.971Z,1010.07
2019-01-17T00:29:36.641Z,1010.07
2019-01-17T00:30:36.787Z,1010.11
2019-01-17T00:31:36.965Z,1010.12
2019-01-17T00:32:36.717Z,1010.15
2019-01-17T00:33:36.949Z,1010.11
2019-01-17T00:34:37.159Z,1010.14
2019-01-17T00:35:36.693Z,1010.15
2019-01-17T00:36:36.889Z,1010.07
2019-01-17T00:37:36.892Z,1010.1
2019-01-17T00:38:36.715Z,1010.06
2019-01-17T00:39:36.772Z,1010.05
2019-01-17T00:40:37.133Z,1010.03
2019-01-17T00:41:36.943Z,1010.03
2019-01-17T00:42:36.705Z,1010.01
2019-01-17T00:43:37.465Z,1009.99
2019-01-17T00:44:36.911Z,1010.02
2019-01-17T00:45:36.921Z,1010.03
2019-01-17T00:46:36.820Z,1010.05
2019-01-17T00:47:36.706Z,1009.99
2019-01-17T00:48:36.664Z,1010
2019-01-17T00:49:38.430Z,1010
2019-01-17T00:50:36.850Z,1010
2019-01-17T00:51:36.797Z,1009.97
2019-01-17T00:52:36.996Z,1009.99
2019-01-17T00:53:36.459Z,1010
2019-01-17T00:54:36.570Z,1009.98
2019-01-17T00:55:37.410Z,1009.94
2019-01-17T00:56:36.619Z,1009.92
2019-01-17T00:57:37.036Z,1009.93
2019-01-17T00:58:36.823Z,1009.86
2019-01-17T00:59:37.729Z,1009.88
2019-01-17T01:00:36.823Z,1009.84
2019-01-17T01:01:36.811Z,1009.8
2019-01-17T01:02:36.657Z,1009.8
2019-01-17T01:03:37.360Z,1009.8
2019-01-17T01:04:36.757Z,1009.79
2019-01-17T01:05:37.044Z,1009.85
2019-01-17T01:06:37.175Z,1009.82
2019-01-17T01:07:36.538Z,1009.8
2019-01-17T01:08:36.668Z,1009.79
2019-01-17T01:09:38.347Z,1009.79
2019-01-17T01:10:36.529Z,1009.73
2019-01-17T01:11:36.648Z,1009.63
2019-01-17T01:12:36.678Z,1009.59
2019-01-17T01:13:36.599Z,1009.57
2019-01-17T01:14:36.709Z,1009.58
2019-01-17T01:15:37.007Z,1009.55
2019-01-17T01:16:36.533Z,1009.66
2019-01-17T01:17:36.660Z,1009.66
2019-01-17T01:18:37.394Z,1009.68
2019-01-17T01:19:36.973Z,1009.69
2019-01-17T01:20:37.248Z,1009.68
2019-01-17T01:21:36.419Z,1009.69
2019-01-17T01:22:37.125Z,1009.65
2019-01-17T01:23:36.977Z,1009.66
2019-01-17T01:24:36.692Z,1009.66
2019-01-17T01:25:36.965Z,1009.7
2019-01-17T01:26:36.687Z,1009.65
2019-01-17T01:27:38.389Z,1009.63
2019-01-17T01:28:37.184Z,1009.69
2019-01-17T01:29:37.037Z,1009.65
2019-01-17T01:30:36.401Z,1009.72
2019-01-17T01:31:36.854Z,1009.67
2019-01-17T01:32:36.732Z,1009.71
2019-01-17T01:33:36.902Z,1009.68
2019-01-17T01:34:36.631Z,1009.71
2019-01-17T01:35:36.859Z,1009.69
2019-01-17T01:36:36.439Z,1009.72
2019-01-17T01:37:36.758Z,1009.7
2019-01-17T01:38:36.645Z,1009.7
2019-01-17T01:39:36.793Z,1009.74
2019-01-17T01:40:36.637Z,1009.71
2019-01-17T01:41:36.753Z,1009.75
2019-01-17T01:42:36.712Z,1009.69
2019-01-17T01:43:36.651Z,1009.7
2019-01-17T01:44:36.628Z,1009.67
2019-01-17T01:45:36.492Z,1009.71
2019-01-17T01:46:36.741Z,1009.68
2019-01-17T01:47:36.794Z,1009.67
2019-01-17T01:48:36.793Z,1009.68
2019-01-17T01:49:36.444Z,1009.68
2019-01-17T01:50:36.732Z,1009.62
2019-01-17T01:51:36.625Z,1009.68
2019-01-17T01:52:36.689Z,1009.65
2019-01-17T01:53:36.456Z,1009.67
2019-01-17T01:54:36.657Z,1009.62
2019-01-17T01:55:36.797Z,1009.66
2019-01-17T01:56:36.719Z,1009.63
2019-01-17T01:57:36.678Z,1009.62
2019-01-17T01:58:36.712Z,1009.62
2019-01-17T01:59:37.271Z,1009.59
2019-01-17T02:00:37.334Z,1009.57
2019-01-17T02:01:36.807Z,1009.57
2019-01-17T02:02:36.730Z,1009.54
2019-01-17T02:03:36.986Z,1009.54
2019-01-17T02:04:36.641Z,1009.56
2019-01-17T02:05:36.524Z,1009.53
2019-01-17T02:06:37.170Z,1009.56
2019-01-17T02:07:36.890Z,1009.5
2019-01-17T02:08:36.924Z,1009.51
2019-01-17T02:09:36.916Z,1009.55
2019-01-17T02:10:37.000Z,1009.5
2019-01-17T02:11:36.953Z,1009.52
2019-01-17T02:12:36.695Z,1009.55
2019-01-17T02:13:36.785Z,1009.57
2019-01-17T02:14:37.254Z,1009.54
2019-01-17T02:15:36.821Z,1009.57
2019-01-17T02:16:36.817Z,1009.51
2019-01-17T02:17:36.854Z,1009.49
2019-01-17T02:18:36.793Z,1009.45
2019-01-17T02:19:36.703Z,1009.47
2019-01-17T02:20:36.651Z,1009.48
2019-01-17T02:21:36.764Z,1009.44
2019-01-17T02:22:36.815Z,1009.41
2019-01-17T02:23:36.807Z,1009.47
2019-01-17T02:24:36.487Z,1009.4
2019-01-17T02:25:36.637Z,1009.4
2019-01-17T02:26:37.499Z,1009.38
2019-01-17T02:27:37.107Z,1009.38
2019-01-17T02:28:36.987Z,1009.36
2019-01-17T02:29:37.354Z,1009.37
2019-01-17T02:30:36.827Z,1009.36
2019-01-17T02:31:36.909Z,1009.28
2019-01-17T02:32:36.765Z,1009.36
2019-01-17T02:33:36.702Z,1009.31
2019-01-17T02:34:36.940Z,1009.27
2019-01-17T02:35:36.896Z,1009.29
2019-01-17T02:36:36.462Z,1009.32
2019-01-17T02:37:36.667Z,1009.28
2019-01-17T02:38:37.007Z,1009.28
2019-01-17T02:39:36.992Z,1009.28
2019-01-17T02:40:36.761Z,1009.34
2019-01-17T02:41:36.903Z,1009.3
2019-01-17T02:42:36.850Z,1009.29
2019-01-17T02:43:36.693Z,1009.29
2019-01-17T02:44:37.137Z,1009.27
2019-01-17T02:45:36.856Z,1009.24
2019-01-17T02:46:37.134Z,1009.24
2019-01-17T02:47:38.421Z,1009.22
2019-01-17T02:48:36.566Z,1009.25
2019-01-17T02:49:37.034Z,1009.27
2019-01-17T02:50:36.616Z,1009.24
2019-01-17T02:51:38.583Z,1009.24
2019-01-17T02:52:37.794Z,1009.32
2019-01-17T02:53:36.622Z,1009.21
2019-01-17T02:54:36.875Z,1009.24
2019-01-17T02:55:36.693Z,1009.17
2019-01-17T02:56:36.619Z,1009.2
2019-01-17T02:57:36.987Z,1009.16
2019-01-17T02:58:36.818Z,1009.22
2019-01-17T02:59:36.762Z,1009.24
2019-01-17T03:00:37.099Z,1009.22
2019-01-17T03:01:37.006Z,1009.24
2019-01-17T03:02:36.984Z,1009.25
2019-01-17T03:03:36.810Z,1009.24
2019-01-17T03:04:36.843Z,1009.28
2019-01-17T03:05:36.925Z,1009.29
2019-01-17T03:06:36.720Z,1009.26
2019-01-17T03:07:36.975Z,1009.25
2019-01-17T03:08:36.534Z,1009.19
2019-01-17T03:09:38.619Z,1009.25
2019-01-17T03:10:36.535Z,1009.23
2019-01-17T03:11:38.628Z,1009.25
2019-01-17T03:12:36.657Z,1009.26
2019-01-17T03:13:38.395Z,1009.15
2019-01-17T03:14:36.888Z,1009.18
2019-01-17T03:15:38.344Z,1009.12
2019-01-17T03:16:37.031Z,1009.15
2019-01-17T03:17:36.646Z,1009.15
2019-01-17T03:18:36.757Z,1009.16
2019-01-17T03:19:36.561Z,1009.15
2019-01-17T03:20:37.147Z,1009.16
2019-01-17T03:21:37.260Z,1009.15
2019-01-17T03:22:36.585Z,1009.12
2019-01-17T03:23:36.744Z,1009.15
2019-01-17T03:24:43.333Z,1009.14
2019-01-17T03:25:36.794Z,1009.1
2019-01-17T03:26:36.680Z,1009.09
2019-01-17T03:27:36.439Z,1009.1
2019-01-17T03:28:36.691Z,1009.09
2019-01-17T03:29:36.649Z,1009.07
2019-01-17T03:30:36.609Z,1009.01
2019-01-17T03:31:36.807Z,1009.05
2019-01-17T03:32:36.456Z,1009.07
2019-01-17T03:33:36.617Z,1008.99
2019-01-17T03:34:36.687Z,1009
2019-01-17T03:35:36.714Z,1008.93
2019-01-17T03:36:36.436Z,1008.98
2019-01-17T03:37:36.602Z,1008.92
2019-01-17T03:38:36.611Z,1008.99
2019-01-17T03:39:36.624Z,1008.93
2019-01-17T03:40:36.568Z,1008.92
2019-01-17T03:41:36.911Z,1008.9
2019-01-17T03:42:37.102Z,1008.84
2019-01-17T03:43:36.667Z,1008.86
2019-01-17T03:44:36.418Z,1008.84
2019-01-17T03:45:36.877Z,1008.82
2019-01-17T03:46:37.597Z,1008.83
2019-01-17T03:47:36.733Z,1008.84
2019-01-17T03:48:36.440Z,1008.81
2019-01-17T03:49:36.926Z,1008.82
2019-01-17T03:50:36.678Z,1008.82
2019-01-17T03:51:36.742Z,1008.76
2019-01-17T03:52:36.616Z,1008.78
2019-01-17T03:53:36.626Z,1008.74
2019-01-17T03:54:36.821Z,1008.71
2019-01-17T03:55:36.406Z,1008.68
2019-01-17T03:56:37.641Z,1008.67
2019-01-17T03:57:36.971Z,1008.7
2019-01-17T03:58:36.923Z,1008.65
2019-01-17T03:59:36.979Z,1008.64
2019-01-17T04:00:36.733Z,1008.61
2019-01-17T04:01:38.047Z,1008.58
2019-01-17T04:02:36.673Z,1008.62
2019-01-17T04:03:37.038Z,1008.61
2019-01-17T04:04:36.809Z,1008.6
2019-01-17T04:05:37.104Z,1008.66
2019-01-17T04:06:37.018Z,1008.57
2019-01-17T04:07:36.776Z,1008.58
2019-01-17T04:08:36.693Z,1008.58
2019-01-17T04:09:36.421Z,1008.56
2019-01-17T04:10:36.622Z,1008.56
2019-01-17T04:11:36.945Z,1008.6
2019-01-17T04:12:36.824Z,1008.58
2019-01-17T04:13:36.782Z,1008.59
2019-01-17T04:14:36.863Z,1008.54
2019-01-17T04:15:36.539Z,1008.5
2019-01-17T04:16:36.898Z,1008.55
2019-01-17T04:17:37.011Z,1008.55
2019-01-17T04:18:36.560Z,1008.5
2019-01-17T04:19:36.860Z,1008.44
2019-01-17T04:20:36.717Z,1008.42
2019-01-17T04:21:37.220Z,1008.44
2019-01-17T04:22:37.084Z,1008.43
2019-01-17T04:23:37.434Z,1008.44
2019-01-17T04:24:36.854Z,1008.39
2019-01-17T04:25:36.766Z,1008.3
2019-01-17T04:26:36.454Z,1008.33
2019-01-17T04:27:37.018Z,1008.37
2019-01-17T04:28:37.607Z,1008.35
2019-01-17T04:29:36.816Z,1008.32
2019-01-17T04:30:36.850Z,1008.32
2019-01-17T04:31:36.522Z,1008.32
2019-01-17T04:32:36.700Z,1008.31
2019-01-17T04:33:36.855Z,1008.33
2019-01-17T04:34:36.935Z,1008.3
2019-01-17T04:35:36.737Z,1008.32
2019-01-17T04:36:36.873Z,1008.27
2019-01-17T04:37:36.586Z,1008.23
2019-01-17T04:38:36.931Z,1008.21
2019-01-17T04:39:36.651Z,1008.23
2019-01-17T04:40:36.768Z,1008.22
2019-01-17T04:41:36.870Z,1008.2
2019-01-17T04:42:37.283Z,1008.21
2019-01-17T04:43:36.903Z,1008.2
2019-01-17T04:44:36.603Z,1008.21
2019-01-17T04:45:36.846Z,1008.2
2019-01-17T04:46:37.022Z,1008.17
2019-01-17T04:47:36.478Z,1008.18
2019-01-17T04:48:36.965Z,1008.18
2019-01-17T04:49:36.423Z,1008.18
2019-01-17T04:50:36.702Z,1008.19
2019-01-17T04:51:36.830Z,1008.13
2019-01-17T04:52:38.662Z,1008.14
2019-01-17T04:53:36.673Z,1008.1
2019-01-17T04:54:38.650Z,1008.13
2019-01-17T04:55:36.488Z,1008.12
2019-01-17T04:56:36.803Z,1008.11
2019-01-17T04:57:36.994Z,1008.03
2019-01-17T04:58:36.785Z,1008.02
2019-01-17T04:59:37.501Z,1007.98
2019-01-17T05:00:36.703Z,1008.08
2019-01-17T05:01:36.580Z,1008.04
2019-01-17T05:02:36.736Z,1008.06
2019-01-17T05:03:36.381Z,1008.04
2019-01-17T05:04:36.543Z,1008.04
2019-01-17T05:05:37.002Z,1008.05
2019-01-17T05:06:36.745Z,1008.05
2019-01-17T05:07:36.818Z,1008.04
2019-01-17T05:08:36.616Z,1008.04
2019-01-17T05:09:36.674Z,1008.09
2019-01-17T05:10:36.556Z,1008.07
2019-01-17T05:11:36.551Z,1008.07
2019-01-17T05:12:36.727Z,1008.07
2019-01-17T05:13:36.742Z,1008
2019-01-17T05:14:36.658Z,1007.97
2019-01-17T05:15:36.398Z,1007.98
2019-01-17T05:16:36.995Z,1007.92
2019-01-17T05:17:36.923Z,1007.93
2019-01-17T05:18:36.978Z,1007.89
2019-01-17T05:19:36.661Z,1007.86
2019-01-17T05:20:36.720Z,1007.87
2019-01-17T05:21:36.539Z,1007.89
2019-01-17T05:22:36.778Z,1007.87
2019-01-17T05:23:36.687Z,1007.84
2019-01-17T05:24:36.899Z,1007.83
2019-01-17T05:25:37.814Z,1007.82
2019-01-17T05:26:36.700Z,1007.82
2019-01-17T05:27:36.584Z,1007.8
2019-01-17T05:28:36.623Z,1007.78
2019-01-17T05:29:36.713Z,1007.77
2019-01-17T05:30:37.555Z,1007.77
2019-01-17T05:31:37.870Z,1007.78
2019-01-17T05:32:36.969Z,1007.68
2019-01-17T05:33:36.756Z,1007.74
2019-01-17T05:34:40.039Z,1007.71
2019-01-17T05:35:36.461Z,1007.7
2019-01-17T05:36:37.108Z,1007.71
2019-01-17T05:37:36.907Z,1007.7
2019-01-17T05:38:36.760Z,1007.73
2019-01-17T05:39:36.368Z,1007.72
2019-01-17T05:40:36.655Z,1007.69
2019-01-17T05:41:38.433Z,1007.67
2019-01-17T05:42:38.402Z,1007.67
2019-01-17T05:43:36.660Z,1007.66
2019-01-17T05:44:36.739Z,1007.62
2019-01-17T05:45:36.830Z,1007.62
2019-01-17T05:46:36.610Z,1007.61
2019-01-17T05:47:36.586Z,1007.63
2019-01-17T05:48:37.046Z,1007.63
2019-01-17T05:49:36.347Z,1007.6
2019-01-17T05:50:36.847Z,1007.62
2019-01-17T05:51:36.880Z,1007.64
2019-01-17T05:52:36.809Z,1007.62
2019-01-17T05:53:36.790Z,1007.61
2019-01-17T05:54:36.699Z,1007.66
2019-01-17T05:55:36.587Z,1007.63
2019-01-17T05:56:36.632Z,1007.64
2019-01-17T05:57:36.945Z,1007.63
2019-01-17T05:58:36.375Z,1007.64
2019-01-17T05:59:37.006Z,1007.67
2019-01-17T06:00:36.861Z,1007.7
2019-01-17T06:01:36.503Z,1007.7
2019-01-17T06:02:36.794Z,1007.67
2019-01-17T06:03:36.692Z,1007.67
2019-01-17T06:04:36.996Z,1007.69
2019-01-17T06:05:37.146Z,1007.74
2019-01-17T06:06:36.907Z,1007.71
2019-01-17T06:07:36.794Z,1007.72
2019-01-17T06:08:36.963Z,1007.76
2019-01-17T06:09:36.379Z,1007.76
2019-01-17T06:10:36.585Z,1007.76
2019-01-17T06:11:36.693Z,1007.75
2019-01-17T06:12:36.626Z,1007.72
2019-01-17T06:13:36.599Z,1007.69
2019-01-17T06:14:36.815Z,1007.66
2019-01-17T06:15:37.267Z,1007.69
2019-01-17T06:16:37.210Z,1007.64
2019-01-17T06:17:36.250Z,1007.66
2019-01-17T06:18:36.687Z,1007.68
2019-01-17T06:19:36.553Z,1007.68
2019-01-17T06:20:36.661Z,1007.66
2019-01-17T06:21:36.997Z,1007.66
2019-01-17T06:22:36.851Z,1007.65
2019-01-17T06:23:36.435Z,1007.65
2019-01-17T06:24:36.713Z,1007.67
2019-01-17T06:25:38.467Z,1007.62
2019-01-17T06:26:36.993Z,1007.61
2019-01-17T06:27:38.288Z,1007.59
2019-01-17T06:28:36.486Z,1007.6
2019-01-17T06:29:36.342Z,1007.53
2019-01-17T06:30:37.439Z,1007.54
2019-01-17T06:31:37.251Z,1007.57
2019-01-17T06:32:36.730Z,1007.59
2019-01-17T06:33:37.599Z,1007.49
2019-01-17T06:34:36.666Z,1007.49
2019-01-17T06:35:36.607Z,1007.48
2019-01-17T06:36:37.051Z,1007.45
2019-01-17T06:37:36.708Z,1007.5
2019-01-17T06:38:36.660Z,1007.49
2019-01-17T06:39:36.714Z,1007.43
2019-01-17T06:40:36.967Z,1007.48
2019-01-17T06:41:36.783Z,1007.48
2019-01-17T06:42:36.572Z,1007.45
2019-01-17T06:43:37.313Z,1007.46
2019-01-17T06:44:36.446Z,1007.42
2019-01-17T06:45:36.588Z,1007.43
2019-01-17T06:46:36.733Z,1007.42
2019-01-17T06:47:36.710Z,1007.42
2019-01-17T06:48:37.034Z,1007.39
2019-01-17T06:49:36.410Z,1007.43
2019-01-17T06:50:36.659Z,1007.4
2019-01-17T06:51:37.327Z,1007.37
2019-01-17T06:52:36.806Z,1007.35
2019-01-17T06:53:37.148Z,1007.38
2019-01-17T06:54:36.803Z,1007.36
2019-01-17T06:55:36.623Z,1007.35
2019-01-17T06:56:36.904Z,1007.37
2019-01-17T06:57:36.336Z,1007.32
2019-01-17T06:58:36.415Z,1007.35
2019-01-17T06:59:36.659Z,1007.3
2019-01-17T07:00:36.604Z,1007.33
2019-01-17T07:01:36.428Z,1007.33
2019-01-17T07:02:36.828Z,1007.35
2019-01-17T07:03:36.426Z,1007.38
2019-01-17T07:04:36.799Z,1007.34
2019-01-17T07:05:36.759Z,1007.35
2019-01-17T07:06:36.743Z,1007.35
2019-01-17T07:07:36.822Z,1007.33
2019-01-17T07:08:36.650Z,1007.35
2019-01-17T07:09:36.540Z,1007.33
2019-01-17T07:10:36.803Z,1007.34
2019-01-17T07:11:36.644Z,1007.32
2019-01-17T07:12:38.318Z,1007.28
2019-01-17T07:13:36.548Z,1007.32
2019-01-17T07:14:36.316Z,1007.28
2019-01-17T07:15:36.752Z,1007.29
2019-01-17T07:16:38.395Z,1007.29
2019-01-17T07:17:38.274Z,1007.29
2019-01-17T07:18:36.874Z,1007.3
2019-01-17T07:19:38.447Z,1007.27
2019-01-17T07:20:36.436Z,1007.27
2019-01-17T07:21:38.026Z,1007.32
2019-01-17T07:22:37.216Z,1007.3
2019-01-17T07:23:36.480Z,1007.31
2019-01-17T07:24:37.410Z,1007.3
2019-01-17T07:25:41.448Z,1007.32
2019-01-17T07:26:36.449Z,1007.33
2019-01-17T07:27:37.346Z,1007.33
2019-01-17T07:28:36.830Z,1007.3
2019-01-17T07:29:36.359Z,1007.3
2019-01-17T07:30:36.768Z,1007.28
2019-01-17T07:31:36.680Z,1007.31
2019-01-17T07:32:36.797Z,1007.31
2019-01-17T07:33:36.883Z,1007.3
2019-01-17T07:34:36.782Z,1007.31
2019-01-17T07:35:37.194Z,1007.32
2019-01-17T07:36:36.921Z,1007.38
2019-01-17T07:37:36.317Z,1007.32
2019-01-17T07:38:36.696Z,1007.36
2019-01-17T07:39:36.861Z,1007.31
2019-01-17T07:40:36.486Z,1007.34
2019-01-17T07:41:36.740Z,1007.36
2019-01-17T07:42:36.640Z,1007.38
2019-01-17T07:43:36.650Z,1007.39
2019-01-17T07:44:37.149Z,1007.34
2019-01-17T07:45:37.133Z,1007.36
2019-01-17T07:46:36.704Z,1007.37
2019-01-17T07:47:36.555Z,1007.35
2019-01-17T07:48:36.833Z,1007.38
2019-01-17T07:49:36.529Z,1007.4
2019-01-17T07:50:36.827Z,1007.32
2019-01-17T07:51:36.434Z,1007.36
2019-01-17T07:52:36.747Z,1007.38
2019-01-17T07:53:37.083Z,1007.39
2019-01-17T07:54:36.752Z,1007.4
2019-01-17T07:55:36.534Z,1007.38
2019-01-17T07:56:36.868Z,1007.43
2019-01-17T07:57:36.799Z,1007.42
2019-01-17T07:58:36.539Z,1007.45
2019-01-17T07:59:36.884Z,1007.45
2019-01-17T08:00:36.329Z,1007.38
2019-01-17T08:01:36.605Z,1007.35
2019-01-17T08:02:38.458Z,1007.4
2019-01-17T08:03:36.418Z,1007.39
2019-01-17T08:04:36.845Z,1007.39
2019-01-17T08:05:36.806Z,1007.4
2019-01-17T08:06:37.003Z,1007.33
2019-01-17T08:07:36.457Z,1007.36
2019-01-17T08:08:36.453Z,1007.35
2019-01-17T08:09:36.407Z,1007.41
2019-01-17T08:10:36.574Z,1007.38
2019-01-17T08:11:36.309Z,1007.36
2019-01-17T08:12:36.886Z,1007.35
2019-01-17T08:13:36.726Z,1007.4
2019-01-17T08:14:36.493Z,1007.4
2019-01-17T08:15:36.930Z,1007.38
2019-01-17T08:16:36.729Z,1007.37
2019-01-17T08:17:36.705Z,1007.42
2019-01-17T08:18:36.796Z,1007.45
2019-01-17T08:19:36.919Z,1007.49
2019-01-17T08:20:36.607Z,1007.5
2019-01-17T08:21:36.520Z,1007.48
2019-01-17T08:22:36.926Z,1007.47
2019-01-17T08:23:38.310Z,1007.48
2019-01-17T08:24:36.959Z,1007.47
2019-01-17T08:25:36.678Z,1007.44
2019-01-17T08:26:36.663Z,1007.42
2019-01-17T08:27:36.680Z,1007.43
2019-01-17T08:28:36.445Z,1007.44
2019-01-17T08:29:36.806Z,1007.45
2019-01-17T08:30:36.808Z,1007.51
2019-01-17T08:31:36.424Z,1007.51
2019-01-17T08:32:36.484Z,1007.49
2019-01-17T08:33:36.781Z,1007.44
2019-01-17T08:34:36.399Z,1007.45
2019-01-17T08:35:37.139Z,1007.5
2019-01-17T08:36:36.795Z,1007.53
2019-01-17T08:37:37.438Z,1007.55
2019-01-17T08:38:36.783Z,1007.53
2019-01-17T08:39:36.737Z,1007.52
2019-01-17T08:40:36.370Z,1007.55
2019-01-17T08:41:36.752Z,1007.59
2019-01-17T08:42:37.168Z,1007.56
2019-01-17T08:43:36.945Z,1007.56
2019-01-17T08:44:37.294Z,1007.59
2019-01-17T08:45:37.326Z,1007.6
2019-01-17T08:46:37.127Z,1007.63
2019-01-17T08:47:37.060Z,1007.59
2019-01-17T08:48:36.430Z,1007.59
2019-01-17T08:49:36.781Z,1007.65
2019-01-17T08:50:36.888Z,1007.64
2019-01-17T08:51:36.332Z,1007.64
2019-01-17T08:52:36.966Z,1007.63
2019-01-17T08:53:36.899Z,1007.67
2019-01-17T08:54:36.729Z,1007.6
2019-01-17T08:55:37.079Z,1007.69
2019-01-17T08:56:36.785Z,1007.7
2019-01-17T08:57:36.667Z,1007.65
2019-01-17T08:58:38.380Z,1007.73
2019-01-17T08:59:36.796Z,1007.7
2019-01-17T09:00:36.347Z,1007.7
2019-01-17T09:01:37.058Z,1007.73
2019-01-17T09:02:37.030Z,1007.68
2019-01-17T09:03:36.471Z,1007.68
2019-01-17T09:04:36.447Z,1007.71
2019-01-17T09:05:36.655Z,1007.7
2019-01-17T09:06:36.832Z,1007.73
2019-01-17T09:07:36.431Z,1007.77
2019-01-17T09:08:36.383Z,1007.74
2019-01-17T09:09:36.797Z,1007.75
2019-01-17T09:10:36.762Z,1007.67
2019-01-17T09:11:36.554Z,1007.73
2019-01-17T09:12:36.518Z,1007.72
2019-01-17T09:13:36.903Z,1007.73
2019-01-17T09:14:36.992Z,1007.71
2019-01-17T09:15:36.390Z,1007.7
2019-01-17T09:16:36.487Z,1007.7
2019-01-17T09:17:36.762Z,1007.68
2019-01-17T09:18:36.522Z,1007.69
2019-01-17T09:19:36.585Z,1007.69
2019-01-17T09:20:36.510Z,1007.71
2019-01-17T09:21:36.429Z,1007.72
2019-01-17T09:22:37.156Z,1007.75
2019-01-17T09:23:36.500Z,1007.78
2019-01-17T09:24:36.514Z,1007.8
2019-01-17T09:25:36.854Z,1007.84
2019-01-17T09:26:36.806Z,1007.85
2019-01-17T09:27:36.847Z,1007.87
2019-01-17T09:28:38.515Z,1007.86
2019-01-17T09:29:36.797Z,1007.85
2019-01-17T09:30:36.753Z,1007.82
2019-01-17T09:31:36.385Z,1007.87
2019-01-17T09:32:38.350Z,1007.89
2019-01-17T09:33:36.709Z,1007.94
2019-01-17T09:34:36.702Z,1007.95
2019-01-17T09:35:36.808Z,1007.96
2019-01-17T09:36:37.066Z,1007.94
2019-01-17T09:37:36.796Z,1007.96
2019-01-17T09:38:36.844Z,1007.96
2019-01-17T09:39:37.796Z,1007.98
2019-01-17T09:40:36.746Z,1008.04
2019-01-17T09:41:36.537Z,1008.04
2019-01-17T09:42:37.509Z,1008.08
2019-01-17T09:43:36.865Z,1008.07
2019-01-17T09:44:37.083Z,1008.08
2019-01-17T09:45:37.684Z,1008.03
2019-01-17T09:46:36.345Z,1007.99
2019-01-17T09:47:37.055Z,1007.98
2019-01-17T09:48:36.287Z,1008
2019-01-17T09:49:36.793Z,1008.03
2019-01-17T09:50:36.994Z,1008.12
2019-01-17T09:51:36.863Z,1008.2
2019-01-17T09:52:36.978Z,1008.22
2019-01-17T09:53:36.765Z,1008.22
2019-01-17T09:54:36.445Z,1008.17
2019-01-17T09:55:36.848Z,1008.13
2019-01-17T09:56:36.289Z,1008.13
2019-01-17T09:57:36.758Z,1008.08
2019-01-17T09:58:36.965Z,1008.07
2019-01-17T09:59:36.338Z,1008.08
2019-01-17T10:00:36.882Z,1008.16
2019-01-17T10:01:36.582Z,1008.15
2019-01-17T10:02:36.720Z,1008.15
2019-01-17T10:03:36.732Z,1008.23
2019-01-17T10:04:36.672Z,1008.17
2019-01-17T10:05:36.503Z,1008.27
2019-01-17T10:06:38.429Z,1008.22
2019-01-17T10:07:36.312Z,1008.2
2019-01-17T10:08:36.672Z,1008.16
2019-01-17T10:09:36.740Z,1008.2
2019-01-17T10:10:36.700Z,1008.16
2019-01-17T10:11:36.777Z,1008.12
2019-01-17T10:12:36.379Z,1008.13
2019-01-17T10:13:36.401Z,1008.14
2019-01-17T10:14:36.703Z,1008.12
2019-01-17T10:15:36.429Z,1008.18
2019-01-17T10:16:37.086Z,1008.23
2019-01-17T10:17:36.747Z,1008.18
2019-01-17T10:18:36.680Z,1008.24
2019-01-17T10:19:36.645Z,1008.21
2019-01-17T10:20:36.710Z,1008.25
2019-01-17T10:21:36.385Z,1008.3
2019-01-17T10:22:36.533Z,1008.25
2019-01-17T10:23:36.574Z,1008.29
2019-01-17T10:24:36.746Z,1008.25
2019-01-17T10:25:36.837Z,1008.26
2019-01-17T10:26:36.728Z,1008.25
2019-01-17T10:27:36.787Z,1008.27
2019-01-17T10:28:36.952Z,1008.21
2019-01-17T10:29:36.765Z,1008.25
2019-01-17T10:30:36.848Z,1008.26
2019-01-17T10:31:36.993Z,1008.27
2019-01-17T10:32:36.653Z,1008.24
2019-01-17T10:33:38.364Z,1008.24
2019-01-17T10:34:36.862Z,1008.25
2019-01-17T10:35:36.466Z,1008.22
2019-01-17T10:36:36.413Z,1008.24
2019-01-17T10:37:36.519Z,1008.25
2019-01-17T10:38:36.967Z,1008.26
2019-01-17T10:39:36.833Z,1008.21
2019-01-17T10:40:36.471Z,1008.2
2019-01-17T10:41:36.842Z,1008.14
2019-01-17T10:42:37.003Z,1008.13
2019-01-17T10:43:37.805Z,1008.17
2019-01-17T10:44:38.325Z,1008.17
2019-01-17T10:45:37.372Z,1008.13
2019-01-17T10:46:36.437Z,1008.1
2019-01-17T10:47:36.975Z,1008.09
2019-01-17T10:48:36.785Z,1008.1
2019-01-17T10:49:36.486Z,1008.13
2019-01-17T10:50:36.483Z,1008.16
2019-01-17T10:51:36.728Z,1008.15
2019-01-17T10:52:36.495Z,1008.17
2019-01-17T10:53:36.884Z,1008.17
2019-01-17T10:54:36.707Z,1008.15
2019-01-17T10:55:36.629Z,1008.17
2019-01-17T10:56:41.811Z,1008.12
2019-01-17T10:57:37.272Z,1008.09
2019-01-17T10:58:36.381Z,1008.12
2019-01-17T10:59:36.957Z,1008.15
2019-01-17T11:00:36.755Z,1008.14
2019-01-17T11:01:36.508Z,1008.14
2019-01-17T11:02:36.244Z,1008.13
2019-01-17T11:03:36.609Z,1008.13
2019-01-17T11:04:36.783Z,1008.2
2019-01-17T11:05:36.644Z,1008.14
2019-01-17T11:06:36.506Z,1008.15
2019-01-17T11:07:36.549Z,1008.17
2019-01-17T11:08:36.933Z,1008.11
2019-01-17T11:09:36.459Z,1008.09
2019-01-17T11:10:36.336Z,1008.13
2019-01-17T11:11:36.712Z,1008.13
2019-01-17T11:12:36.747Z,1008.08
2019-01-17T11:13:38.303Z,1008.05
2019-01-17T11:14:36.623Z,1008.11
2019-01-17T11:15:36.440Z,1008.14
2019-01-17T11:16:36.460Z,1008.2
2019-01-17T11:17:36.848Z,1008.2
2019-01-17T11:18:36.626Z,1008.19
2019-01-17T11:19:36.300Z,1008.16
2019-01-17T11:20:36.793Z,1008.11
2019-01-17T11:21:37.158Z,1008.11
2019-01-17T11:22:36.917Z,1008.16
2019-01-17T11:23:36.736Z,1008.12
2019-01-17T11:24:36.513Z,1008.15
2019-01-17T11:25:36.388Z,1008.11
2019-01-17T11:26:36.597Z,1008.12
2019-01-17T11:27:36.393Z,1008.12
2019-01-17T11:28:36.728Z,1008.09
2019-01-17T11:29:37.372Z,1008.06
2019-01-17T11:30:36.681Z,1008.02
2019-01-17T11:31:36.611Z,1008.04
2019-01-17T11:32:36.232Z,1008
2019-01-17T11:33:36.607Z,1007.95
2019-01-17T11:34:36.720Z,1007.91
2019-01-17T11:35:36.444Z,1007.95
2019-01-17T11:36:36.292Z,1007.94
2019-01-17T11:37:37.041Z,1007.92
2019-01-17T11:38:36.481Z,1007.89
2019-01-17T11:39:36.827Z,1007.84
2019-01-17T11:40:36.853Z,1007.81
2019-01-17T11:41:36.713Z,1007.84
2019-01-17T11:42:36.914Z,1007.94
2019-01-17T11:43:36.741Z,1007.84
2019-01-17T11:44:36.261Z,1007.89
2019-01-17T11:45:36.539Z,1007.89
2019-01-17T11:46:36.809Z,1007.87
2019-01-17T11:47:36.305Z,1007.85
2019-01-17T11:48:37.078Z,1007.79
2019-01-17T11:49:36.329Z,1007.84
2019-01-17T11:50:36.825Z,1007.83
2019-01-17T11:51:36.416Z,1007.82
2019-01-17T11:52:36.286Z,1007.79
2019-01-17T11:53:36.413Z,1007.84
2019-01-17T11:54:36.851Z,1007.81
2019-01-17T11:55:36.425Z,1007.79
2019-01-17T11:56:41.252Z,1007.83
2019-01-17T11:57:36.739Z,1007.77
2019-01-17T11:58:36.281Z,1007.69
2019-01-17T11:59:36.443Z,1007.71
2019-01-17T12:00:37.048Z,1007.76
2019-01-17T12:01:36.235Z,1007.66
2019-01-17T12:02:39.861Z,1007.73
2019-01-17T12:03:36.833Z,1007.68
2019-01-17T12:04:36.301Z,1007.7
2019-01-17T12:05:36.877Z,1007.7
2019-01-17T12:06:36.748Z,1007.69
2019-01-17T12:07:36.279Z,1007.66
2019-01-17T12:08:36.741Z,1007.73
2019-01-17T12:09:38.323Z,1007.66